createdAt,value
2022-11-11T00:00:13.875Z,99793.60
2022-11-11T00:01:47.482Z,99796.23
2022-11-11T00:03:07.815Z,99792.35
2022-11-11T00:04:28.264Z,99793.55
2022-11-11T00:05:48.766Z,99792.92
2022-11-11T00:07:09.136Z,99790.66
2022-11-11T00:08:29.724Z,99790.00
2022-11-11T00:09:49.935Z,99788.57
2022-11-11T00:11:12.864Z,99791.26
2022-11-11T00:12:32.994Z,99793.16
2022-11-11T00:13:54.712Z,99791.87
2022-11-11T00:15:15.108Z,99793.77
2022-11-11T00:16:54.027Z,99793.83
2022-11-11T00:18:32.881Z,99795.92
2022-11-11T00:20:11.732Z,99793.18
2022-11-11T00:21:38.689Z,99792.48
2022-11-11T00:23:17.810Z,99789.79
2022-11-11T00:24:56.643Z,99790.29
2022-11-11T00:26:38.438Z,99786.08
2022-11-11T00:27:57.314Z,99786.95
2022-11-11T00:29:17.694Z,99782.55
2022-11-11T00:30:38.040Z,99783.54
2022-11-11T00:32:16.928Z,99783.92
2022-11-11T00:33:38.100Z,99782.51
2022-11-11T00:35:18.084Z,99786.43
2022-11-11T00:36:41.598Z,99786.86
2022-11-11T00:38:10.878Z,99785.30
2022-11-11T00:39:31.209Z,99785.35
2022-11-11T00:40:51.558Z,99784.21
2022-11-11T00:42:11.970Z,99784.64
2022-11-11T00:43:33.078Z,99784.52
2022-11-11T00:44:53.824Z,99786.11
2022-11-11T00:46:34.698Z,99787.55
2022-11-11T00:48:13.705Z,99785.71
2022-11-11T00:49:53.200Z,99783.25
2022-11-11T00:51:13.504Z,99787.69
2022-11-11T00:52:33.679Z,99788.19
2022-11-11T00:53:54.417Z,99782.63
2022-11-11T00:55:15.371Z,99785.27
2022-11-11T00:56:39.144Z,99785.29
2022-11-11T00:57:59.126Z,99788.77
2022-11-11T00:59:19.561Z,99789.09
2022-11-11T01:00:40.228Z,99786.37
2022-11-11T01:02:00.922Z,99785.17
2022-11-11T01:03:22.467Z,99789.89
2022-11-11T01:04:43.102Z,99788.45
2022-11-11T01:06:05.086Z,99787.82
2022-11-11T01:07:25.944Z,99790.67
2022-11-11T01:08:46.332Z,99789.80
2022-11-11T01:10:07.027Z,99793.27
2022-11-11T01:11:27.441Z,99789.36
2022-11-11T01:12:47.555Z,99791.62
2022-11-11T01:14:08.570Z,99792.62
2022-11-11T01:15:33.823Z,99789.75
2022-11-11T01:16:54.286Z,99795.85
2022-11-11T01:18:16.958Z,99789.25
2022-11-11T01:19:37.757Z,99792.18
2022-11-11T01:21:07.799Z,99789.11
2022-11-11T01:22:29.007Z,99788.90
2022-11-11T01:23:51.971Z,99785.53
2022-11-11T01:25:12.669Z,99786.45
2022-11-11T01:26:33.245Z,99782.73
2022-11-11T01:27:53.604Z,99787.58
2022-11-11T01:29:13.720Z,99782.22
2022-11-11T01:30:35.503Z,99783.25
2022-11-11T01:31:55.938Z,99784.20
2022-11-11T01:33:16.368Z,99783.00
2022-11-11T01:34:36.679Z,99779.66
2022-11-11T01:36:03.717Z,99781.86
2022-11-11T01:37:24.188Z,99779.79
2022-11-11T01:38:49.876Z,99779.36
2022-11-11T01:40:10.930Z,99777.19
2022-11-11T01:41:34.460Z,99779.21
2022-11-11T01:43:04.343Z,99780.85
2022-11-11T01:44:46.702Z,99782.79
2022-11-11T01:46:22.664Z,99780.34
2022-11-11T01:48:22.991Z,99777.16
2022-11-11T01:49:59.602Z,99773.56
2022-11-11T01:51:25.562Z,99778.58
2022-11-11T01:52:46.218Z,99778.73
2022-11-11T01:54:30.262Z,99776.63
2022-11-11T01:55:51.407Z,99773.00
2022-11-11T01:57:21.680Z,99773.89
2022-11-11T01:58:42.381Z,99767.09
2022-11-11T02:00:11.477Z,99767.18
2022-11-11T02:01:33.678Z,99767.21
2022-11-11T02:03:05.280Z,99768.73
2022-11-11T02:04:44.932Z,99769.71
2022-11-11T02:06:07.227Z,99768.14
2022-11-11T02:07:28.015Z,99774.67
2022-11-11T02:08:48.369Z,99774.65
2022-11-11T02:10:10.310Z,99771.00
2022-11-11T02:12:27.665Z,99766.27
2022-11-11T02:14:06.883Z,99768.69
2022-11-11T02:15:27.885Z,99775.80
2022-11-11T02:16:48.317Z,99779.96
2022-11-11T02:18:09.241Z,99782.98
2022-11-11T02:19:40.703Z,99780.08
2022-11-11T02:21:01.973Z,99778.27
2022-11-11T02:22:36.007Z,99770.70
2022-11-11T02:24:15.960Z,99769.94
2022-11-11T02:25:41.042Z,99771.42
2022-11-11T02:27:03.244Z,99768.13
2022-11-11T02:28:27.673Z,99769.14
2022-11-11T02:29:52.994Z,99767.36
2022-11-11T02:31:13.570Z,99768.93
2022-11-11T02:32:34.010Z,99769.52
2022-11-11T02:33:54.599Z,99770.84
2022-11-11T02:35:25.935Z,99768.33
2022-11-11T02:36:47.124Z,99767.62
2022-11-11T02:38:08.688Z,99772.40
2022-11-11T02:39:56.576Z,99780.38
2022-11-11T02:41:29.212Z,99789.63
2022-11-11T02:42:49.516Z,99794.45
2022-11-11T02:44:09.908Z,99795.40
2022-11-11T02:45:30.873Z,99795.48
2022-11-11T02:46:52.524Z,99794.70
2022-11-11T02:48:13.123Z,99795.04
2022-11-11T02:49:33.849Z,99796.31
2022-11-11T02:50:54.847Z,99801.94
2022-11-11T02:52:15.226Z,99801.10
2022-11-11T02:53:35.762Z,99804.52
2022-11-11T02:54:56.171Z,99800.35
2022-11-11T02:56:36.756Z,99797.43
2022-11-11T02:57:57.245Z,99797.98
2022-11-11T02:59:17.650Z,99790.06
2022-11-11T03:00:37.931Z,99787.27
2022-11-11T03:01:58.469Z,99790.48
2022-11-11T03:03:18.978Z,99790.30
2022-11-11T03:04:39.540Z,99792.25
2022-11-11T03:06:00.020Z,99792.96
2022-11-11T03:07:20.506Z,99793.38
2022-11-11T03:08:41.177Z,99790.52
2022-11-11T03:10:01.238Z,99790.90
2022-11-11T03:11:28.040Z,99783.89
2022-11-11T03:12:48.848Z,99785.14
2022-11-11T03:14:09.339Z,99789.38
2022-11-11T03:15:29.510Z,99787.18
2022-11-11T03:17:08.769Z,99787.98
2022-11-11T03:18:29.032Z,99786.59
2022-11-11T03:19:50.152Z,99785.86
2022-11-11T03:22:12.714Z,99788.63
2022-11-11T03:23:20.656Z,99787.35
2022-11-11T03:24:59.472Z,99793.88
2022-11-11T03:26:20.047Z,99797.55
2022-11-11T03:27:42.117Z,99797.17
2022-11-11T03:29:02.765Z,99801.67
2022-11-11T03:30:23.368Z,99805.88
2022-11-11T03:31:43.747Z,99806.05
2022-11-11T03:33:04.404Z,99806.48
2022-11-11T03:34:24.613Z,99810.98
2022-11-11T03:35:47.491Z,99809.90
2022-11-11T03:37:29.047Z,99811.25
2022-11-11T03:38:49.431Z,99812.79
2022-11-11T03:40:10.191Z,99819.55
2022-11-11T03:41:30.715Z,99819.23
2022-11-11T03:42:51.204Z,99814.98
2022-11-11T03:44:11.736Z,99818.37
2022-11-11T03:45:31.925Z,99814.62
2022-11-11T03:46:52.490Z,99816.84
2022-11-11T03:48:13.243Z,99815.93
2022-11-11T03:49:33.616Z,99816.51
2022-11-11T03:50:54.329Z,99813.74
2022-11-11T03:52:14.478Z,99813.73
2022-11-11T03:53:34.965Z,99813.08
2022-11-11T03:54:55.208Z,99818.78
2022-11-11T03:56:15.536Z,99818.52
2022-11-11T03:57:45.335Z,99818.28
2022-11-11T03:59:05.947Z,99817.50
2022-11-11T04:00:28.685Z,99820.46
2022-11-11T04:02:07.346Z,99816.96
2022-11-11T04:03:46.328Z,99820.38
2022-11-11T04:05:25.839Z,99823.64
2022-11-11T04:07:04.737Z,99826.32
2022-11-11T04:08:43.456Z,99831.02
2022-11-11T04:10:22.482Z,99833.95
2022-11-11T04:11:48.223Z,99834.63
2022-11-11T04:13:28.670Z,99835.99
2022-11-11T04:15:07.559Z,99836.43
2022-11-11T04:16:28.137Z,99840.35
2022-11-11T04:17:48.752Z,99837.29
2022-11-11T04:19:27.703Z,99836.67
2022-11-11T04:21:06.260Z,99836.37
2022-11-11T04:22:26.689Z,99836.73
2022-11-11T04:23:47.213Z,99835.69
2022-11-11T04:25:26.460Z,99835.77
2022-11-11T04:26:46.668Z,99833.55
2022-11-11T04:28:25.079Z,99831.82
2022-11-11T04:29:47.925Z,99827.73
2022-11-11T04:31:08.302Z,99824.13
2022-11-11T04:32:40.790Z,99825.48
2022-11-11T04:34:01.317Z,99829.45
2022-11-11T04:35:21.466Z,99829.76
2022-11-11T04:36:41.751Z,99828.67
2022-11-11T04:38:20.388Z,99833.46
2022-11-11T04:39:59.758Z,99833.36
2022-11-11T04:41:20.161Z,99834.15
2022-11-11T04:42:40.604Z,99834.71
2022-11-11T04:44:19.357Z,99837.33
2022-11-11T04:45:39.963Z,99836.88
2022-11-11T04:47:00.430Z,99838.57
2022-11-11T04:48:21.041Z,99843.20
2022-11-11T04:49:41.750Z,99842.13
2022-11-11T04:51:01.852Z,99843.77
2022-11-11T04:52:28.801Z,99843.11
2022-11-11T04:53:49.037Z,99838.21
2022-11-11T04:55:28.084Z,99838.41
2022-11-11T04:56:50.050Z,99834.30
2022-11-11T04:58:11.006Z,99835.49
2022-11-11T04:59:31.155Z,99835.09
2022-11-11T05:00:51.915Z,99834.84
2022-11-11T05:02:30.734Z,99839.14
2022-11-11T05:03:51.584Z,99847.95
2022-11-11T05:05:11.928Z,99848.79
2022-11-11T05:07:22.375Z,99849.33
2022-11-11T05:08:57.137Z,99850.52
2022-11-11T05:10:17.842Z,99858.23
2022-11-11T05:11:38.140Z,99852.22
2022-11-11T05:13:23.527Z,99854.77
2022-11-11T05:15:03.006Z,99852.52
2022-11-11T05:16:47.182Z,99855.40
2022-11-11T05:18:27.198Z,99854.66
2022-11-11T05:20:06.147Z,99852.84
2022-11-11T05:21:30.897Z,99857.13
2022-11-11T05:22:51.044Z,99847.45
2022-11-11T05:24:30.192Z,99842.13
2022-11-11T05:25:50.501Z,99843.12
2022-11-11T05:27:10.950Z,99837.02
2022-11-11T05:28:31.375Z,99833.09
2022-11-11T05:29:51.608Z,99832.64
2022-11-11T05:31:12.107Z,99835.25
2022-11-11T05:32:32.638Z,99837.89
2022-11-11T05:33:53.144Z,99841.23
2022-11-11T05:35:14.780Z,99843.21
2022-11-11T05:36:35.106Z,99838.93
2022-11-11T05:38:20.358Z,99837.36
2022-11-11T05:39:41.155Z,99838.17
2022-11-11T05:41:01.280Z,99841.45
2022-11-11T05:42:21.658Z,99842.06
2022-11-11T05:43:42.450Z,99846.35
2022-11-11T05:45:02.889Z,99852.40
2022-11-11T05:46:23.242Z,99850.84
2022-11-11T05:47:43.377Z,99849.16
2022-11-11T05:49:15.550Z,99842.64
2022-11-11T05:50:38.024Z,99844.77
2022-11-11T05:51:58.636Z,99840.13
2022-11-11T05:53:24.524Z,99840.73
2022-11-11T05:54:46.085Z,99837.40
2022-11-11T05:56:06.394Z,99840.32
2022-11-11T05:57:26.504Z,99839.96
2022-11-11T05:58:50.426Z,99841.58
2022-11-11T06:00:11.750Z,99840.88
2022-11-11T06:01:32.014Z,99840.08
2022-11-11T06:02:52.513Z,99847.08
2022-11-11T06:04:17.978Z,99847.22
2022-11-11T06:05:39.084Z,99847.04
2022-11-11T06:06:59.494Z,99843.95
2022-11-11T06:08:19.740Z,99842.34
2022-11-11T06:09:39.918Z,99835.23
2022-11-11T06:11:00.022Z,99833.84
2022-11-11T06:12:20.262Z,99834.27
2022-11-11T06:13:40.976Z,99836.89
2022-11-11T06:15:01.300Z,99832.86
2022-11-11T06:16:21.642Z,99835.06
2022-11-11T06:17:41.963Z,99836.91
2022-11-11T06:19:04.173Z,99839.71
2022-11-11T06:20:24.756Z,99837.97
2022-11-11T06:21:57.011Z,99832.86
2022-11-11T06:23:17.713Z,99833.39
2022-11-11T06:24:37.827Z,99832.27
2022-11-11T06:26:14.267Z,99833.42
2022-11-11T06:27:34.604Z,99835.06
2022-11-11T06:28:56.475Z,99839.86
2022-11-11T06:31:57.144Z,99842.52
2022-11-11T06:33:17.613Z,99844.75
2022-11-11T06:34:37.730Z,99850.43
2022-11-11T06:35:58.138Z,99847.45
2022-11-11T06:37:18.526Z,99845.67
2022-11-11T06:38:39.872Z,99850.48
2022-11-11T06:40:00.265Z,99850.80
2022-11-11T06:41:20.867Z,99846.84
2022-11-11T06:42:41.105Z,99849.71
2022-11-11T06:44:01.387Z,99849.79
2022-11-11T06:45:21.636Z,99850.27
2022-11-11T06:46:41.876Z,99849.59
2022-11-11T06:48:03.831Z,99844.39
2022-11-11T06:49:23.945Z,99843.20
2022-11-11T06:50:44.277Z,99843.17
2022-11-11T06:52:04.846Z,99844.13
2022-11-11T06:53:25.221Z,99841.63
2022-11-11T06:54:45.781Z,99842.58
2022-11-11T06:56:07.881Z,99842.35
2022-11-11T06:57:28.299Z,99846.89
2022-11-11T06:58:48.735Z,99847.48
2022-11-11T07:00:09.693Z,99846.02
2022-11-11T07:01:30.240Z,99843.74
2022-11-11T07:02:56.479Z,99844.22
2022-11-11T07:04:16.697Z,99839.61
2022-11-11T07:05:37.346Z,99832.48
2022-11-11T07:06:57.728Z,99837.44
2022-11-11T07:08:19.001Z,99836.61
2022-11-11T07:09:39.120Z,99834.40
2022-11-11T07:11:05.106Z,99834.77
2022-11-11T07:12:30.237Z,99836.00
2022-11-11T07:13:50.653Z,99837.17
2022-11-11T07:15:11.488Z,99836.90
2022-11-11T07:16:31.834Z,99830.61
2022-11-11T07:17:52.346Z,99825.81
2022-11-11T07:19:12.709Z,99824.20
2022-11-11T07:20:33.140Z,99825.09
2022-11-11T07:21:53.586Z,99825.80
2022-11-11T07:23:13.798Z,99824.29
2022-11-11T07:24:34.283Z,99825.98
2022-11-11T07:25:54.646Z,99827.98
2022-11-11T07:27:14.993Z,99831.85
2022-11-11T07:28:35.040Z,99834.86
2022-11-11T07:29:55.339Z,99837.39
2022-11-11T07:31:16.333Z,99834.27
2022-11-11T07:32:36.861Z,99836.58
2022-11-11T07:33:57.326Z,99837.85
2022-11-11T07:35:19.946Z,99837.34
2022-11-11T07:36:40.277Z,99839.31
2022-11-11T07:38:00.792Z,99836.58
2022-11-11T07:39:21.325Z,99833.59
2022-11-11T07:40:41.491Z,99836.22
2022-11-11T07:42:01.765Z,99836.50
2022-11-11T07:43:21.979Z,99835.99
2022-11-11T07:44:48.129Z,99834.45
2022-11-11T07:46:10.055Z,99837.08
2022-11-11T07:47:30.672Z,99832.44
2022-11-11T07:48:50.984Z,99834.39
2022-11-11T07:50:11.910Z,99833.31
2022-11-11T07:51:32.440Z,99830.80
2022-11-11T07:52:52.632Z,99833.61
2022-11-11T07:54:13.164Z,99830.59
2022-11-11T07:55:34.068Z,99835.95
2022-11-11T07:56:54.525Z,99836.14
2022-11-11T07:58:15.063Z,99840.09
2022-11-11T07:59:35.420Z,99842.40
2022-11-11T08:00:55.845Z,99839.80
2022-11-11T08:02:17.386Z,99834.30
2022-11-11T08:03:49.712Z,99833.80
2022-11-11T08:05:10.957Z,99836.52
2022-11-11T08:06:31.407Z,99834.17
2022-11-11T08:07:51.562Z,99842.32
2022-11-11T08:09:11.896Z,99847.00
2022-11-11T08:10:33.114Z,99844.02
2022-11-11T08:12:11.892Z,99840.98
2022-11-11T08:13:41.014Z,99839.44
2022-11-11T08:15:06.197Z,99836.92
2022-11-11T08:16:27.261Z,99840.05
2022-11-11T08:17:47.337Z,99846.21
2022-11-11T08:19:07.687Z,99849.94
2022-11-11T08:20:28.022Z,99856.46
2022-11-11T08:21:48.688Z,99860.35
2022-11-11T08:25:07.025Z,99858.42
2022-11-11T08:26:29.744Z,99863.38
2022-11-11T08:27:56.280Z,99864.02
2022-11-11T08:29:16.424Z,99867.65
2022-11-11T08:30:36.612Z,99862.18
2022-11-11T08:31:57.739Z,99860.68
2022-11-11T08:33:32.898Z,99860.14
2022-11-11T08:34:55.534Z,99859.23
2022-11-11T08:36:20.467Z,99857.20
2022-11-11T08:37:41.664Z,99856.27
2022-11-11T08:39:01.858Z,99858.10
2022-11-11T08:40:22.713Z,99855.43
2022-11-11T08:41:43.139Z,99856.55
2022-11-11T08:43:04.280Z,99858.54
2022-11-11T08:44:24.829Z,99859.60
2022-11-11T08:45:45.663Z,99862.95
2022-11-11T08:47:06.147Z,99863.20
2022-11-11T08:48:27.584Z,99861.29
2022-11-11T08:49:49.474Z,99858.95
2022-11-11T08:51:09.683Z,99859.26
2022-11-11T08:52:30.213Z,99859.84
2022-11-11T08:53:50.844Z,99860.69
2022-11-11T08:55:11.258Z,99860.33
2022-11-11T08:56:31.523Z,99857.79
2022-11-11T08:57:59.939Z,99858.98
2022-11-11T08:59:20.332Z,99859.23
2022-11-11T09:00:40.923Z,99860.01
2022-11-11T09:02:01.201Z,99859.94
2022-11-11T09:03:21.440Z,99860.08
2022-11-11T09:04:46.442Z,99862.12
2022-11-11T09:06:10.255Z,99863.46
2022-11-11T09:07:30.614Z,99862.45
2022-11-11T09:08:51.003Z,99864.61
2022-11-11T09:10:12.314Z,99864.88
2022-11-11T09:11:36.419Z,99869.64
2022-11-11T09:12:57.843Z,99869.19
2022-11-11T09:14:18.128Z,99869.41
2022-11-11T09:15:38.563Z,99867.14
2022-11-11T09:16:58.895Z,99867.21
2022-11-11T09:18:19.174Z,99860.86
2022-11-11T09:19:39.372Z,99865.89
2022-11-11T09:21:00.791Z,99868.41
2022-11-11T09:22:21.121Z,99863.31
2022-11-11T09:23:41.526Z,99864.66
2022-11-11T09:25:01.843Z,99865.39
2022-11-11T09:26:22.234Z,99864.23
2022-11-11T09:27:43.732Z,99860.73
2022-11-11T09:29:04.223Z,99856.79
2022-11-11T09:30:26.257Z,99854.23
2022-11-11T09:31:47.296Z,99859.14
2022-11-11T09:33:08.280Z,99850.84
2022-11-11T09:34:28.651Z,99846.40
2022-11-11T09:35:48.979Z,99843.84
2022-11-11T09:37:09.297Z,99846.98
2022-11-11T09:38:29.499Z,99850.80
2022-11-11T09:39:49.710Z,99851.34
2022-11-11T09:41:25.026Z,99856.17
2022-11-11T09:43:11.376Z,99854.20
2022-11-11T09:45:00.807Z,99855.45
2022-11-11T09:46:51.748Z,99852.58
2022-11-11T09:48:35.324Z,99857.36
2022-11-11T09:50:10.671Z,99855.75
2022-11-11T09:51:43.977Z,99848.31
2022-11-11T09:53:06.928Z,99853.46
2022-11-11T09:54:38.171Z,99849.80
2022-11-11T09:56:37.500Z,99847.20
2022-11-11T09:58:12.389Z,99840.98
2022-11-11T09:59:49.740Z,99838.41
2022-11-11T10:01:19.189Z,99841.69
2022-11-11T10:03:01.469Z,99838.73
2022-11-11T10:04:34.323Z,99840.25
2022-11-11T10:06:07.401Z,99848.66
2022-11-11T10:07:39.844Z,99858.07
2022-11-11T10:09:07.523Z,99860.63
2022-11-11T10:10:49.430Z,99856.98
2022-11-11T10:12:15.850Z,99852.86
2022-11-11T10:13:38.525Z,99850.65
2022-11-11T10:15:01.401Z,99849.48
2022-11-11T10:16:48.803Z,99844.84
2022-11-11T10:18:23.017Z,99839.33
2022-11-11T10:20:01.615Z,99845.22
2022-11-11T10:23:35.705Z,99845.86
2022-11-11T10:25:09.256Z,99841.04
2022-11-11T10:26:39.520Z,99837.77
2022-11-11T10:28:02.532Z,99832.80
2022-11-11T10:29:30.609Z,99830.43
2022-11-11T10:30:53.063Z,99831.58
2022-11-11T10:32:25.432Z,99833.89
2022-11-11T10:34:03.084Z,99834.40
2022-11-11T10:35:27.049Z,99834.61
2022-11-11T10:36:54.874Z,99839.14
2022-11-11T10:38:18.385Z,99836.89
2022-11-11T10:40:00.905Z,99839.13
2022-11-11T10:41:38.289Z,99837.60
2022-11-11T10:42:58.624Z,99840.29
2022-11-11T10:44:26.569Z,99839.63
2022-11-11T10:46:10.369Z,99842.23
2022-11-11T10:47:44.218Z,99841.88
2022-11-11T10:49:26.185Z,99835.92
2022-11-11T10:50:53.138Z,99829.33
2022-11-11T10:52:21.753Z,99829.54
2022-11-11T10:53:57.340Z,99830.48
2022-11-11T10:55:39.153Z,99829.25
2022-11-11T10:57:06.176Z,99827.22
2022-11-11T10:58:36.490Z,99827.33
2022-11-11T10:59:59.561Z,99825.60
2022-11-11T11:01:34.701Z,99824.95
2022-11-11T11:03:16.599Z,99823.47
2022-11-11T11:04:46.059Z,99825.05
2022-11-11T11:06:18.570Z,99826.19
2022-11-11T11:07:49.226Z,99827.52
2022-11-11T11:09:35.739Z,99822.46
2022-11-11T11:11:00.502Z,99821.37
2022-11-11T11:12:26.158Z,99819.75
2022-11-11T11:13:55.253Z,99821.50
2022-11-11T11:15:20.588Z,99820.14
2022-11-11T11:16:51.174Z,99820.08
2022-11-11T11:18:14.677Z,99821.15
2022-11-11T11:19:34.793Z,99820.09
2022-11-11T11:21:00.951Z,99815.05
2022-11-11T11:22:22.689Z,99808.52
2022-11-11T11:23:45.712Z,99813.58
2022-11-11T11:25:12.395Z,99813.79
2022-11-11T11:26:47.568Z,99813.45
2022-11-11T11:28:13.511Z,99811.34
2022-11-11T11:29:38.446Z,99812.88
2022-11-11T11:31:00.779Z,99805.06
2022-11-11T11:32:29.828Z,99800.05
2022-11-11T11:33:56.027Z,99798.40
2022-11-11T11:35:36.041Z,99795.15
2022-11-11T11:37:02.651Z,99796.02
2022-11-11T11:38:46.569Z,99793.80
2022-11-11T11:40:08.138Z,99788.84
2022-11-11T11:41:43.595Z,99789.38
2022-11-11T11:43:37.309Z,99787.69
2022-11-11T11:45:16.200Z,99786.05
2022-11-11T11:46:44.166Z,99785.28
2022-11-11T11:48:31.501Z,99782.98
2022-11-11T11:50:08.188Z,99777.93
2022-11-11T11:51:43.352Z,99779.50
2022-11-11T11:53:09.737Z,99780.75
2022-11-11T11:54:50.311Z,99777.76
2022-11-11T11:56:26.254Z,99780.95
2022-11-11T11:58:21.617Z,99782.00
2022-11-11T12:00:04.221Z,99787.34
2022-11-11T12:01:40.543Z,99790.73
2022-11-11T12:03:22.082Z,99783.14
2022-11-11T12:04:55.203Z,99786.64
2022-11-11T12:06:23.946Z,99790.44
2022-11-11T12:08:23.924Z,99791.16
2022-11-11T12:09:50.559Z,99792.34
2022-11-11T12:11:28.844Z,99790.66
2022-11-11T12:13:06.913Z,99789.31
2022-11-11T12:14:46.989Z,99782.31
2022-11-11T12:16:26.831Z,99781.98
2022-11-11T12:18:09.223Z,99778.99
2022-11-11T12:19:47.597Z,99785.36
2022-11-11T12:21:18.167Z,99787.23
2022-11-11T12:23:02.247Z,99787.28
2022-11-11T12:24:25.234Z,99790.75
2022-11-11T12:26:04.048Z,99789.41
2022-11-11T12:27:45.302Z,99791.48
2022-11-11T12:29:21.455Z,99793.00
2022-11-11T12:30:56.490Z,99788.89
2022-11-11T12:32:47.408Z,99788.33
2022-11-11T12:34:33.462Z,99788.80
2022-11-11T12:36:21.635Z,99786.02
2022-11-11T12:38:03.877Z,99784.89
2022-11-11T12:39:55.875Z,99788.16
2022-11-11T12:41:27.869Z,99791.48
2022-11-11T12:43:03.322Z,99785.95
2022-11-11T12:44:46.212Z,99786.80
2022-11-11T12:46:44.311Z,99784.70
2022-11-11T12:48:19.545Z,99784.59
2022-11-11T12:50:25.108Z,99784.80
2022-11-11T12:52:01.381Z,99781.10
2022-11-11T12:53:37.733Z,99785.39
2022-11-11T12:55:13.825Z,99790.49
2022-11-11T12:56:43.210Z,99788.21
2022-11-11T12:58:12.149Z,99790.34
2022-11-11T13:00:01.831Z,99784.43
2022-11-11T13:01:54.837Z,99779.20
2022-11-11T13:03:39.591Z,99777.11
2022-11-11T13:05:11.151Z,99779.21
2022-11-11T13:06:56.588Z,99777.86
2022-11-11T13:08:22.418Z,99780.08
2022-11-11T13:10:09.941Z,99782.84
2022-11-11T13:11:48.622Z,99781.58
2022-11-11T13:13:30.659Z,99780.85
2022-11-11T13:15:02.618Z,99787.65
2022-11-11T13:16:25.204Z,99781.95
2022-11-11T13:17:45.445Z,99778.77
2022-11-11T13:19:20.756Z,99780.23
2022-11-11T13:20:51.100Z,99782.48
2022-11-11T13:22:22.762Z,99778.30
2022-11-11T13:23:42.972Z,99780.36
2022-11-11T13:25:09.686Z,99787.08
2022-11-11T13:26:42.808Z,99795.93
2022-11-11T13:28:19.179Z,99793.27
2022-11-11T13:30:02.339Z,99793.27
2022-11-11T13:31:35.599Z,99792.06
2022-11-11T13:33:02.148Z,99791.08
2022-11-11T13:34:23.551Z,99788.56
2022-11-11T13:35:55.688Z,99790.05
2022-11-11T13:37:30.911Z,99785.91
2022-11-11T13:38:56.543Z,99791.41
2022-11-11T13:40:40.348Z,99788.28
2022-11-11T13:42:03.126Z,99791.08
2022-11-11T13:43:42.114Z,99788.21
2022-11-11T13:45:06.283Z,99792.67
2022-11-11T13:46:49.491Z,99799.34
2022-11-11T13:48:24.389Z,99800.86
2022-11-11T13:49:55.752Z,99804.88
2022-11-11T13:51:31.442Z,99802.86
2022-11-11T13:53:05.057Z,99799.88
2022-11-11T13:54:42.115Z,99797.46
2022-11-11T13:56:04.453Z,99794.54
2022-11-11T13:57:27.673Z,99797.27
2022-11-11T13:58:50.095Z,99797.41
2022-11-11T14:00:20.711Z,99797.83
2022-11-11T14:01:42.846Z,99801.05
2022-11-11T14:03:19.888Z,99799.02
2022-11-11T14:05:02.182Z,99798.95
2022-11-11T14:06:28.352Z,99804.67
2022-11-11T14:07:51.399Z,99803.95
2022-11-11T14:09:11.543Z,99806.13
2022-11-11T14:10:31.901Z,99805.88
2022-11-11T14:12:41.134Z,99803.16
2022-11-11T14:14:32.486Z,99802.34
2022-11-11T14:15:54.325Z,99804.14
2022-11-11T14:17:17.700Z,99805.09
2022-11-11T14:18:43.601Z,99799.73
2022-11-11T14:20:36.955Z,99797.15
2022-11-11T14:22:16.892Z,99797.33
2022-11-11T14:23:41.654Z,99792.90
2022-11-11T14:25:28.029Z,99795.47
2022-11-11T14:27:01.792Z,99786.67
2022-11-11T14:28:34.826Z,99788.50
2022-11-11T14:29:58.990Z,99791.81
2022-11-11T14:31:19.302Z,99787.14
2022-11-11T14:32:46.842Z,99791.20
2022-11-11T14:34:32.215Z,99788.12
2022-11-11T14:36:22.146Z,99793.48
2022-11-11T14:37:57.662Z,99792.55
2022-11-11T14:39:42.200Z,99795.52
2022-11-11T14:41:40.108Z,99795.30
2022-11-11T14:43:32.021Z,99800.48
2022-11-11T14:44:52.318Z,99799.73
2022-11-11T14:46:18.849Z,99799.78
2022-11-11T14:47:42.944Z,99797.79
2022-11-11T14:49:03.751Z,99800.67
2022-11-11T14:50:33.242Z,99800.27
2022-11-11T14:51:59.952Z,99802.57
2022-11-11T14:53:36.177Z,99803.01
2022-11-11T14:55:02.969Z,99794.26
2022-11-11T14:56:27.855Z,99799.44
2022-11-11T14:57:52.458Z,99802.39
2022-11-11T14:59:19.112Z,99802.17
2022-11-11T15:01:11.976Z,99803.78
2022-11-11T15:02:42.330Z,99803.57
2022-11-11T15:04:04.969Z,99801.91
2022-11-11T15:05:34.118Z,99794.62
2022-11-11T15:07:02.342Z,99795.34
2022-11-11T15:08:28.688Z,99790.98
2022-11-11T15:10:12.675Z,99785.39
2022-11-11T15:11:38.948Z,99794.96
2022-11-11T15:13:40.307Z,99793.33
2022-11-11T15:15:24.559Z,99797.79
2022-11-11T15:17:02.530Z,99806.02
2022-11-11T15:18:43.114Z,99807.25
2022-11-11T15:20:22.012Z,99808.23
2022-11-11T15:22:07.476Z,99810.52
2022-11-11T15:23:45.819Z,99809.89
2022-11-11T15:25:26.322Z,99815.38
2022-11-11T15:26:53.309Z,99816.05
2022-11-11T15:28:49.895Z,99809.45
2022-11-11T15:30:17.289Z,99806.81
2022-11-11T15:31:55.236Z,99813.15
2022-11-11T15:33:31.521Z,99815.95
2022-11-11T15:35:02.511Z,99823.98
2022-11-11T15:36:35.065Z,99822.18
2022-11-11T15:37:59.878Z,99825.08
2022-11-11T15:39:32.193Z,99823.02
2022-11-11T15:40:59.878Z,99822.86
2022-11-11T15:42:31.305Z,99821.65
2022-11-11T15:43:53.932Z,99822.63
2022-11-11T15:45:20.371Z,99823.67
2022-11-11T15:46:43.383Z,99823.48
2022-11-11T15:48:03.975Z,99821.52
2022-11-11T15:49:45.322Z,99825.28
2022-11-11T15:51:28.916Z,99831.12
2022-11-11T15:52:56.296Z,99834.13
2022-11-11T15:54:17.065Z,99840.94
2022-11-11T15:55:39.399Z,99834.16
2022-11-11T15:56:59.925Z,99837.47
2022-11-11T15:58:29.048Z,99834.35
2022-11-11T15:59:49.656Z,99834.51
2022-11-11T16:01:12.753Z,99836.80
2022-11-11T16:02:35.201Z,99839.13
2022-11-11T16:03:56.352Z,99839.70
2022-11-11T16:05:24.160Z,99838.86
2022-11-11T16:06:45.094Z,99840.84
2022-11-11T16:08:11.086Z,99837.77
2022-11-11T16:09:32.194Z,99841.39
2022-11-11T16:11:01.579Z,99848.98
2022-11-11T16:12:37.206Z,99845.41
2022-11-11T16:14:08.296Z,99849.23
2022-11-11T16:15:43.941Z,99851.39
2022-11-11T16:17:05.062Z,99852.21
2022-11-11T16:18:46.253Z,99850.70
2022-11-11T16:20:15.027Z,99851.09
2022-11-11T16:21:44.923Z,99851.45
2022-11-11T16:23:08.924Z,99849.16
2022-11-11T16:24:41.156Z,99848.45
2022-11-11T16:26:04.814Z,99847.91
2022-11-11T16:27:29.802Z,99846.59
2022-11-11T16:28:53.802Z,99847.42
2022-11-11T16:30:37.719Z,99850.60
2022-11-11T16:31:58.374Z,99853.35
2022-11-11T16:33:39.037Z,99848.99
2022-11-11T16:35:00.132Z,99857.75
2022-11-11T16:36:21.018Z,99856.41
2022-11-11T16:37:52.973Z,99855.56
2022-11-11T16:39:27.500Z,99856.96
2022-11-11T16:40:48.078Z,99854.00
2022-11-11T16:42:21.152Z,99850.00
2022-11-11T16:43:43.163Z,99850.78
2022-11-11T16:45:18.624Z,99842.75
2022-11-11T16:46:41.662Z,99845.38
2022-11-11T16:48:02.324Z,99844.50
2022-11-11T16:49:43.278Z,99843.76
2022-11-11T16:51:12.159Z,99849.68
2022-11-11T16:52:48.582Z,99849.63
2022-11-11T16:54:11.859Z,99849.39
2022-11-11T16:55:44.388Z,99850.02
2022-11-11T16:57:05.266Z,99854.60
2022-11-11T16:58:26.053Z,99856.45
2022-11-11T16:59:52.583Z,99858.03
2022-11-11T17:01:13.030Z,99861.19
2022-11-11T17:02:34.697Z,99862.04
2022-11-11T17:03:58.581Z,99862.52
2022-11-11T17:05:18.900Z,99864.67
2022-11-11T17:06:51.376Z,99865.20
2022-11-11T17:08:30.885Z,99867.75
2022-11-11T17:09:51.313Z,99866.61
2022-11-11T17:11:31.521Z,99871.39
2022-11-11T17:12:52.051Z,99872.11
2022-11-11T17:14:12.359Z,99872.42
2022-11-11T17:15:32.850Z,99872.59
2022-11-11T17:16:53.295Z,99869.34